Larry Nicholas 2K

Back to 2015 XC Races

2015 XC Race

2015-11-01, Kelowna, 2.0 km
# Name City Age GP CP Time Pace
1 Elijah Lazar Salmon Arm M00-99+ 0:10:17 05:08
2 Matthew Acob Coldstream M00-99+ 0:11:09 05:34
3 Erik Haaheim Kelowna M00-99+ 0:11:31 05:45
4 Greg Hales Lake Country M00-99+ 4 4 0:12:44 06:22
5 Kyle Houston Kelowna M00-99+ 5 5 0:12:45 06:22
6 Brody Wright Vernon M00-99+ 6 6 0:12:56 06:28
7 Keegan Hales Lake Country M00-99+ 7 7 0:13:03 06:31
8 Hayden Lazar Salmon Arm M00-99+ 8 8 0:13:31 06:45
9 Paige Leahy Vernon F00-99+ 0:13:31 06:45
10 Sierra Munroe Vernon F00-99+ 0:13:35 06:47
11 Dawson Bond Vernon M00-99+ 9 9 0:13:45 06:52
12 Brenlan Doyle Coldstream M00-99+ 10 10 0:14:52 07:26
13 Evan Sadesky Vernon M00-99+ 11 11 0:15:16 07:38
14 Max Wright Vernon F00-99+ 0:15:17 07:38
15 Luca Ariano Vernon M00-99+ 12 12 0:15:17 07:38
16 Calla Haaheim Kelowna F00-99+ 4 4 0:15:39 07:49
17 Kessa Schroeder Vernon F00-99+ 5 5 0:16:23 08:11
18 Julia Russell Vernon F00-99+ 6 6 0:17:00 08:30
19 Steve Russell Vernon M00-99+ 13 13 0:17:00 08:30
20 Kescia Doyle Coldstream F00-99+ 7 7 0:17:04 08:32
21 Ashley Quigley Kelowna F00-99+ 8 8 0:18:04 09:02
22 Aya Higuchi Vernon F00-99+ 9 9 0:18:07 09:03
23 Narumi Higuchi Vernon F00-99+ 10 10 0:18:11 09:05
24 Cadence Quigley Kelowna F00-99+ 11 11 0:18:31 09:15
25 Abigail Jerome Kelowna F00-99+ 12 12 0:18:41 09:20
26 Davis Spencer Kelowna M00-99+ 14 14 0:18:48 09:24
27 Emma Jerome Kelowna F00-99+ 13 13 0:18:57 09:28
28 Calla Doyle Coldstream F00-99+ 14 14 0:19:05 09:32
29 Jason Doyle Coldstream M00-99+ 15 15 0:19:06 09:33
30 Rebecca Acob Coldstream F00-99+ 15 15 0:19:56 09:58
31 Yann Brierley Coldstream M00-99+ 16 16 0:22:02 11:01
32 Everett Brierley Coldstream M00-99+ 17 16 0:22:02 11:01
33 Brynn Brierley Coldstream F00-99+ 16 16 0:22:02 11:01
34 Nicholas Benson Vernon M00-99+ 18 18 0:23:59 11:59
35 Sarah Benson Vernon F00-99+ 17 17 0:23:59 11:59
36 Sally Benson Vernon F00-99+ 18 18 0:24:04 12:02
37 Jane Wright Vernon M00-99+ 19 19 0:26:30 13:15
38 Merryn Wright Vernon F00-99+ 19 19 0:31:12 15:36
Missing or Incorrect Results